sensor_id;sensor_type;location;lat;lon;timestamp;pressure;altitude;pressure_sealevel;temperature;humidity
57374;BME280;43964;53.890;25.340;2022-07-29T00:00:37;1027.8;;;19;58.1
57374;BME280;43964;53.890;25.340;2022-07-29T00:05:38;1027.8;;;19;58.3
57374;BME280;43964;53.890;25.340;2022-07-29T00:10:37;1027.9;;;19;58.5
57374;BME280;43964;53.890;25.340;2022-07-29T00:15:37;1027.9;;;19;58.8
57374;BME280;43964;53.890;25.340;2022-07-29T00:20:37;1027.9;;;19;58.8
57374;BME280;43964;53.890;25.340;2022-07-29T00:25:37;1027.9;;;19;58.5
57374;BME280;43964;53.890;25.340;2022-07-29T00:30:37;1027.9;;;18.9;59
57374;BME280;43964;53.890;25.340;2022-07-29T00:35:37;1027.9;;;18.9;59.1
57374;BME280;43964;53.890;25.340;2022-07-29T00:40:37;1027.9;;;18.9;59
57374;BME280;43964;53.890;25.340;2022-07-29T00:45:37;1028;;;19;58.9
57374;BME280;43964;53.890;25.340;2022-07-29T00:50:37;1028;;;19;58.6
57374;BME280;43964;53.890;25.340;2022-07-29T00:55:37;1027.9;;;18.9;58.7
57374;BME280;43964;53.890;25.340;2022-07-29T01:00:37;1027.9;;;18.9;58.8
57374;BME280;43964;53.890;25.340;2022-07-29T01:05:37;1027.9;;;18.9;58.7
57374;BME280;43964;53.890;25.340;2022-07-29T01:10:37;1027.9;;;18.9;58.9
57374;BME280;43964;53.890;25.340;2022-07-29T01:15:39;1027.9;;;18.9;59
57374;BME280;43964;53.890;25.340;2022-07-29T01:25:48;1027.9;;;18.8;59.3
57374;BME280;43964;53.890;25.340;2022-07-29T01:30:38;1027.9;;;18.7;59.2
57374;BME280;43964;53.890;25.340;2022-07-29T01:35:39;1028;;;18.7;59.3
57374;BME280;43964;53.890;25.340;2022-07-29T01:40:40;1027.9;;;18.7;59.3
57374;BME280;43964;53.890;25.340;2022-07-29T01:45:40;1027.9;;;18.7;59.3
57374;BME280;43964;53.890;25.340;2022-07-29T01:50:38;1027.9;;;18.7;59.1
57374;BME280;43964;53.890;25.340;2022-07-29T01:55:39;1027.8;;;18.9;59.2
57374;BME280;43964;53.890;25.340;2022-07-29T02:00:37;1027.9;;;18.9;59
57374;BME280;43964;53.890;25.340;2022-07-29T02:05:37;1027.9;;;18.9;58.9
57374;BME280;43964;53.890;25.340;2022-07-29T02:10:37;1027.9;;;18.9;59.2
57374;BME280;43964;53.890;25.340;2022-07-29T02:15:37;1028;;;18.9;59.1
57374;BME280;43964;53.890;25.340;2022-07-29T02:20:37;1028;;;19;58.9
57374;BME280;43964;53.890;25.340;2022-07-29T02:25:37;1028.1;;;19.1;58.8
57374;BME280;43964;53.890;25.340;2022-07-29T02:30:39;1028.1;;;19.1;58.8
57374;BME280;43964;53.890;25.340;2022-07-29T02:35:37;1028.1;;;19;59.2
57374;BME280;43964;53.890;25.340;2022-07-29T02:40:38;1028.1;;;19;59.2
57374;BME280;43964;53.890;25.340;2022-07-29T02:45:37;1028.1;;;18.9;59.3
57374;BME280;43964;53.890;25.340;2022-07-29T02:50:38;1028.1;;;18.7;60.6
57374;BME280;43964;53.890;25.340;2022-07-29T02:55:42;1028;;;18.5;60
57374;BME280;43964;53.890;25.340;2022-07-29T03:00:38;1028.1;;;18.3;61
57374;BME280;43964;53.890;25.340;2022-07-29T03:05:37;1028.1;;;18.4;61
57374;BME280;43964;53.890;25.340;2022-07-29T03:10:39;1028.2;;;18.3;60.1
57374;BME280;43964;53.890;25.340;2022-07-29T03:15:37;1028.2;;;18.4;61.2
57374;BME280;43964;53.890;25.340;2022-07-29T03:20:38;1028.2;;;18.4;61.2
57374;BME280;43964;53.890;25.340;2022-07-29T03:25:37;1028.3;;;18.6;61.3
57374;BME280;43964;53.890;25.340;2022-07-29T03:30:37;1028.3;;;18.6;61.2
57374;BME280;43964;53.890;25.340;2022-07-29T03:35:37;1028.4;;;18.6;61.6
57374;BME280;43964;53.890;25.340;2022-07-29T03:40:42;1028.4;;;18.8;60.6
57374;BME280;43964;53.890;25.340;2022-07-29T03:45:37;1028.5;;;19;60.3
57374;BME280;43964;53.890;25.340;2022-07-29T03:50:37;1028.6;;;19.3;59.5
57374;BME280;43964;53.890;25.340;2022-07-29T03:55:40;1028.6;;;19.4;59.2
57374;BME280;43964;53.890;25.340;2022-07-29T04:00:37;1028.7;;;19.4;59
57374;BME280;43964;53.890;25.340;2022-07-29T04:05:37;1028.7;;;19.5;58.8
57374;BME280;43964;53.890;25.340;2022-07-29T04:10:37;1028.7;;;19.5;58.8
57374;BME280;43964;53.890;25.340;2022-07-29T04:15:37;1028.7;;;19.6;58.4
57374;BME280;43964;53.890;25.340;2022-07-29T04:20:37;1028.7;;;19.6;58.4
57374;BME280;43964;53.890;25.340;2022-07-29T04:25:38;1028.8;;;19.9;57.9
57374;BME280;43964;53.890;25.340;2022-07-29T04:30:37;1028.8;;;19.9;57.6
57374;BME280;43964;53.890;25.340;2022-07-29T04:35:37;1028.8;;;19.8;57.5
57374;BME280;43964;53.890;25.340;2022-07-29T04:40:37;1028.8;;;19.6;58
57374;BME280;43964;53.890;25.340;2022-07-29T04:45:37;1028.8;;;19.7;58
57374;BME280;43964;53.890;25.340;2022-07-29T04:50:38;1028.9;;;19.7;58
57374;BME280;43964;53.890;25.340;2022-07-29T04:55:37;1028.9;;;19.7;57.9
57374;BME280;43964;53.890;25.340;2022-07-29T05:00:37;1029;;;19.6;57.6
57374;BME280;43964;53.890;25.340;2022-07-29T05:05:37;1028.9;;;19.6;57.9
57374;BME280;43964;53.890;25.340;2022-07-29T05:10:37;1028.9;;;19.8;57.7
57374;BME280;43964;53.890;25.340;2022-07-29T05:15:37;1028.9;;;19.8;57.7
57374;BME280;43964;53.890;25.340;2022-07-29T05:20:37;1028.8;;;19.8;57.6
57374;BME280;43964;53.890;25.340;2022-07-29T05:25:37;1028.7;;;20.1;57.3
57374;BME280;43964;53.890;25.340;2022-07-29T05:30:37;1028.7;;;20.2;56.9
57374;BME280;43964;53.890;25.340;2022-07-29T05:35:37;1028.8;;;20.4;56.4
57374;BME280;43964;53.890;25.340;2022-07-29T05:40:37;1028.8;;;20.2;56.6
57374;BME280;43964;53.890;25.340;2022-07-29T05:45:38;1028.7;;;20.3;56.3
57374;BME280;43964;53.890;25.340;2022-07-29T05:50:37;1028.7;;;20.6;55.3
57374;BME280;43964;53.890;25.340;2022-07-29T05:55:37;1028.7;;;21.3;53.8
57374;BME280;43964;53.890;25.340;2022-07-29T06:00:37;1028.7;;;22.4;51.1
57374;BME280;43964;53.890;25.340;2022-07-29T06:05:37;1028.7;;;23.4;49.1
57374;BME280;43964;53.890;25.340;2022-07-29T06:10:37;1028.7;;;24.2;46.8
57374;BME280;43964;53.890;25.340;2022-07-29T06:15:37;1028.7;;;24.2;46.8
57374;BME280;43964;53.890;25.340;2022-07-29T06:20:37;1028.9;;;23.1;48.6
57374;BME280;43964;53.890;25.340;2022-07-29T06:25:39;1028.9;;;22.6;49.3
57374;BME280;43964;53.890;25.340;2022-07-29T06:30:38;1028.9;;;22.6;49.8
57374;BME280;43964;53.890;25.340;2022-07-29T06:35:37;1028.9;;;22.8;49.2
57374;BME280;43964;53.890;25.340;2022-07-29T06:40:40;1028.8;;;23;49.1
57374;BME280;43964;53.890;25.340;2022-07-29T06:45:37;1028.8;;;23.7;47.9
57374;BME280;43964;53.890;25.340;2022-07-29T06:50:37;1028.9;;;24;46.9
57374;BME280;43964;53.890;25.340;2022-07-29T06:55:37;1028.9;;;24.2;46.5
57374;BME280;43964;53.890;25.340;2022-07-29T07:00:37;1029;;;23.6;47.2
57374;BME280;43964;53.890;25.340;2022-07-29T07:05:37;1029;;;24.1;46.7
57374;BME280;43964;53.890;25.340;2022-07-29T07:10:37;1028.9;;;24.9;45.4
57374;BME280;43964;53.890;25.340;2022-07-29T07:15:37;1028.9;;;24.9;45.2
57374;BME280;43964;53.890;25.340;2022-07-29T07:20:37;1028.9;;;25.2;43.7
57374;BME280;43964;53.890;25.340;2022-07-29T07:25:37;1029;;;25.9;42.5
57374;BME280;43964;53.890;25.340;2022-07-29T07:30:37;1029;;;26.4;42.5
57374;BME280;43964;53.890;25.340;2022-07-29T07:35:37;1029;;;26.6;42.1
57374;BME280;43964;53.890;25.340;2022-07-29T07:40:37;1029;;;26.6;41.9
57374;BME280;43964;53.890;25.340;2022-07-29T07:45:37;1029;;;26.5;41.6
57374;BME280;43964;53.890;25.340;2022-07-29T07:50:37;1029;;;26.4;41.6
57374;BME280;43964;53.890;25.340;2022-07-29T07:55:39;1029;;;26.6;41.4
57374;BME280;43964;53.890;25.340;2022-07-29T08:00:37;1029;;;27;41
57374;BME280;43964;53.890;25.340;2022-07-29T08:05:37;1029;;;27.1;40.8
57374;BME280;43964;53.890;25.340;2022-07-29T08:10:38;1029.1;;;26.6;40
57374;BME280;43964;53.890;25.340;2022-07-29T08:15:38;1029.1;;;26.4;40.6
57374;BME280;43964;53.890;25.340;2022-07-29T08:20:37;1029.1;;;26.4;40.6
57374;BME280;43964;53.890;25.340;2022-07-29T08:25:37;1029.1;;;27.2;39.4
57374;BME280;43964;53.890;25.340;2022-07-29T08:30:37;1029.2;;;27;40.1
57374;BME280;43964;53.890;25.340;2022-07-29T08:35:38;1029.2;;;26.7;40.3
57374;BME280;43964;53.890;25.340;2022-07-29T08:40:37;1029.2;;;27;39.4
57374;BME280;43964;53.890;25.340;2022-07-29T08:45:41;1029.2;;;26.9;39.6
57374;BME280;43964;53.890;25.340;2022-07-29T08:50:37;1029.2;;;26.9;39.6
57374;BME280;43964;53.890;25.340;2022-07-29T08:55:46;1029.2;;;26.7;40.3
57374;BME280;43964;53.890;25.340;2022-07-29T09:00:40;1029.2;;;26.7;40.3
57374;BME280;43964;53.890;25.340;2022-07-29T09:05:37;1029.2;;;27.4;39.2
57374;BME280;43964;53.890;25.340;2022-07-29T09:10:37;1029.2;;;27.4;39.2
57374;BME280;43964;53.890;25.340;2022-07-29T09:15:37;1029.2;;;27.4;39.2
57374;BME280;43964;53.890;25.340;2022-07-29T09:20:37;1029.2;;;27.4;39.2
57374;BME280;43964;53.890;25.340;2022-07-29T09:25:38;1029.2;;;27.4;39.2
57374;BME280;43964;53.890;25.340;2022-07-29T09:31:09;1029.2;;;28.3;36.9
57374;BME280;43964;53.890;25.340;2022-07-29T09:35:37;1029.3;;;27.8;38.4
57374;BME280;43964;53.890;25.340;2022-07-29T09:40:38;1029.3;;;27.8;38.4
57374;BME280;43964;53.890;25.340;2022-07-29T09:45:37;1029.3;;;28;37.2
57374;BME280;43964;53.890;25.340;2022-07-29T09:50:39;1029.4;;;27.8;37.5
57374;BME280;43964;53.890;25.340;2022-07-29T09:55:53;1029.4;;;27.8;37.5
57374;BME280;43964;53.890;25.340;2022-07-29T10:00:37;1029.3;;;27.8;37.7
57374;BME280;43964;53.890;25.340;2022-07-29T10:05:37;1029.3;;;28;37.8
57374;BME280;43964;53.890;25.340;2022-07-29T10:10:39;1029.3;;;28.1;37.6
57374;BME280;43964;53.890;25.340;2022-07-29T10:15:38;1029.3;;;28.1;37.8
57374;BME280;43964;53.890;25.340;2022-07-29T10:20:38;1029.3;;;28.2;37.4
57374;BME280;43964;53.890;25.340;2022-07-29T10:25:37;1029.3;;;27.9;36.6
57374;BME280;43964;53.890;25.340;2022-07-29T10:30:37;1029.2;;;27.4;37.5
57374;BME280;43964;53.890;25.340;2022-07-29T10:35:42;1029.2;;;27.7;38
57374;BME280;43964;53.890;25.340;2022-07-29T10:40:42;1029.2;;;27.6;38.5
57374;BME280;43964;53.890;25.340;2022-07-29T10:45:37;1029.2;;;27.6;38.5
57374;BME280;43964;53.890;25.340;2022-07-29T10:50:54;1029.3;;;26.5;39.1
57374;BME280;43964;53.890;25.340;2022-07-29T10:55:38;1029.2;;;26.6;39
57374;BME280;43964;53.890;25.340;2022-07-29T11:00:37;1029.2;;;26.7;39.2
57374;BME280;43964;53.890;25.340;2022-07-29T11:05:54;1029.3;;;26.9;39.1
57374;BME280;43964;53.890;25.340;2022-07-29T11:10:38;1029.3;;;26.9;39.1
57374;BME280;43964;53.890;25.340;2022-07-29T11:15:53;1029.3;;;27;38.2
57374;BME280;43964;53.890;25.340;2022-07-29T11:20:40;1029.3;;;27;38.2
57374;BME280;43964;53.890;25.340;2022-07-29T11:25:37;1029.3;;;27;38.2
57374;BME280;43964;53.890;25.340;2022-07-29T11:30:47;1029.3;;;27;38.2
57374;BME280;43964;53.890;25.340;2022-07-29T11:35:37;1029.2;;;26.1;38.9
57374;BME280;43964;53.890;25.340;2022-07-29T11:40:37;1029.2;;;26.3;38.2
57374;BME280;43964;53.890;25.340;2022-07-29T11:45:46;1029.2;;;26.9;38
57374;BME280;43964;53.890;25.340;2022-07-29T11:50:38;1029.2;;;26.9;38
57374;BME280;43964;53.890;25.340;2022-07-29T11:55:38;1029.1;;;27.2;36.4
57374;BME280;43964;53.890;25.340;2022-07-29T12:00:38;1029;;;27.1;35.8
57374;BME280;43964;53.890;25.340;2022-07-29T12:05:39;1029;;;27;33.6
57374;BME280;43964;53.890;25.340;2022-07-29T12:10:38;1029;;;27.2;36
57374;BME280;43964;53.890;25.340;2022-07-29T12:15:38;1029;;;27.2;36
57374;BME280;43964;53.890;25.340;2022-07-29T12:20:37;1028.9;;;27.3;35.6
57374;BME280;43964;53.890;25.340;2022-07-29T12:25:38;1028.9;;;27.3;35.6
57374;BME280;43964;53.890;25.340;2022-07-29T12:30:39;1028.9;;;27.3;35.6
57374;BME280;43964;53.890;25.340;2022-07-29T12:35:37;1028.9;;;27.3;35.6
57374;BME280;43964;53.890;25.340;2022-07-29T12:40:37;1028.9;;;27.3;35.6
57374;BME280;43964;53.890;25.340;2022-07-29T12:45:38;1028.9;;;27.3;35.6
57374;BME280;43964;53.890;25.340;2022-07-29T12:50:51;1028.9;;;27.3;35.6
57374;BME280;43964;53.890;25.340;2022-07-29T12:55:38;1028.9;;;27.3;35.6
57374;BME280;43964;53.890;25.340;2022-07-29T13:00:37;1028.9;;;27.3;35.6
57374;BME280;43964;53.890;25.340;2022-07-29T13:05:40;1028.5;;;27.5;32.8
57374;BME280;43964;53.890;25.340;2022-07-29T13:10:37;1028.5;;;27.6;34.4
57374;BME280;43964;53.890;25.340;2022-07-29T13:15:38;1028.5;;;27.6;34.4
57374;BME280;43964;53.890;25.340;2022-07-29T13:20:37;1028.5;;;26.6;30.9
57374;BME280;43964;53.890;25.340;2022-07-29T13:25:37;1028.5;;;26.2;32.8
57374;BME280;43964;53.890;25.340;2022-07-29T13:30:39;1028.5;;;25.9;32.1
57374;BME280;43964;53.890;25.340;2022-07-29T13:35:37;1028.5;;;25.8;34.6
57374;BME280;43964;53.890;25.340;2022-07-29T13:40:37;1028.5;;;26.1;34.1
57374;BME280;43964;53.890;25.340;2022-07-29T13:45:37;1028.4;;;26.5;34.5
57374;BME280;43964;53.890;25.340;2022-07-29T13:50:37;1028.5;;;26.7;34.6
57374;BME280;43964;53.890;25.340;2022-07-29T13:55:37;1028.4;;;27;33
57374;BME280;43964;53.890;25.340;2022-07-29T14:00:37;1028.4;;;26.9;31.9
57374;BME280;43964;53.890;25.340;2022-07-29T14:05:37;1028.4;;;27.1;31.9
57374;BME280;43964;53.890;25.340;2022-07-29T14:10:37;1028.3;;;27.3;33.1
57374;BME280;43964;53.890;25.340;2022-07-29T14:15:37;1028.3;;;27.5;33.2
57374;BME280;43964;53.890;25.340;2022-07-29T14:20:37;1028.3;;;27.5;33.2
57374;BME280;43964;53.890;25.340;2022-07-29T14:25:37;1028.3;;;27.5;33.2
57374;BME280;43964;53.890;25.340;2022-07-29T14:30:37;1028.2;;;28;31.4
57374;BME280;43964;53.890;25.340;2022-07-29T14:35:37;1028.2;;;28;31.4
57374;BME280;43964;53.890;25.340;2022-07-29T14:40:37;1028.2;;;28;31.4
57374;BME280;43964;53.890;25.340;2022-07-29T14:45:37;1028;;;28.5;32.7
57374;BME280;43964;53.890;25.340;2022-07-29T14:50:37;1028;;;28.5;32.7
57374;BME280;43964;53.890;25.340;2022-07-29T14:55:37;1028.1;;;27.3;33.4
57374;BME280;43964;53.890;25.340;2022-07-29T15:00:37;1028.1;;;27.3;33.4
57374;BME280;43964;53.890;25.340;2022-07-29T15:05:37;1028.1;;;27.3;33.4
57374;BME280;43964;53.890;25.340;2022-07-29T15:10:37;1028.1;;;27.3;33.4
57374;BME280;43964;53.890;25.340;2022-07-29T15:15:38;1027.9;;;25.1;36.3
57374;BME280;43964;53.890;25.340;2022-07-29T15:20:37;1027.9;;;25.1;36.4
57374;BME280;43964;53.890;25.340;2022-07-29T15:25:37;1027.9;;;25;36.6
57374;BME280;43964;53.890;25.340;2022-07-29T15:30:37;1027.9;;;24.8;37.6
57374;BME280;43964;53.890;25.340;2022-07-29T15:35:37;1027.9;;;25;38
57374;BME280;43964;53.890;25.340;2022-07-29T15:40:38;1027.8;;;24.9;37.4
57374;BME280;43964;53.890;25.340;2022-07-29T15:45:38;1027.8;;;24.9;37.4
57374;BME280;43964;53.890;25.340;2022-07-29T15:50:37;1027.8;;;24.7;37.9
57374;BME280;43964;53.890;25.340;2022-07-29T15:55:37;1027.8;;;24.5;40.4
57374;BME280;43964;53.890;25.340;2022-07-29T16:00:37;1027.8;;;24.6;41.1
57374;BME280;43964;53.890;25.340;2022-07-29T16:05:37;1027.9;;;25;39.5
57374;BME280;43964;53.890;25.340;2022-07-29T16:10:37;1027.9;;;25;39.5
57374;BME280;43964;53.890;25.340;2022-07-29T16:15:37;1027.9;;;25;39.5
57374;BME280;43964;53.890;25.340;2022-07-29T16:20:37;1027.9;;;25.4;37.8
57374;BME280;43964;53.890;25.340;2022-07-29T16:25:38;1027.9;;;25.4;37.8
57374;BME280;43964;53.890;25.340;2022-07-29T16:30:37;1027.9;;;25.2;38.5
57374;BME280;43964;53.890;25.340;2022-07-29T16:35:37;1027.9;;;25.1;39.4
57374;BME280;43964;53.890;25.340;2022-07-29T16:40:37;1027.8;;;24.9;39.4
57374;BME280;43964;53.890;25.340;2022-07-29T16:45:37;1027.8;;;24.9;39.4
57374;BME280;43964;53.890;25.340;2022-07-29T16:50:37;1027.9;;;24.5;40.8
57374;BME280;43964;53.890;25.340;2022-07-29T16:55:37;1028;;;24.3;40.6
57374;BME280;43964;53.890;25.340;2022-07-29T17:00:37;1027.9;;;24.2;41.4
57374;BME280;43964;53.890;25.340;2022-07-29T17:05:37;1027.8;;;24.2;41.8
57374;BME280;43964;53.890;25.340;2022-07-29T17:10:37;1027.7;;;24.2;41.9
57374;BME280;43964;53.890;25.340;2022-07-29T17:15:37;1027.7;;;24;40.9
57374;BME280;43964;53.890;25.340;2022-07-29T17:20:37;1027.7;;;23.6;40.8
57374;BME280;43964;53.890;25.340;2022-07-29T17:25:37;1027.7;;;23.3;41.6
57374;BME280;43964;53.890;25.340;2022-07-29T17:30:37;1027.7;;;22.9;42.5
57374;BME280;43964;53.890;25.340;2022-07-29T17:35:37;1027.7;;;23;43.1
57374;BME280;43964;53.890;25.340;2022-07-29T17:40:37;1027.7;;;22.9;43.1
57374;BME280;43964;53.890;25.340;2022-07-29T17:45:37;1027.7;;;22.8;44.4
57374;BME280;43964;53.890;25.340;2022-07-29T17:50:37;1027.7;;;22.6;44.3
57374;BME280;43964;53.890;25.340;2022-07-29T17:55:37;1027.8;;;22.5;44.1
57374;BME280;43964;53.890;25.340;2022-07-29T18:00:37;1027.7;;;22.4;44.3
57374;BME280;43964;53.890;25.340;2022-07-29T18:05:37;1027.7;;;22.1;44.4
57374;BME280;43964;53.890;25.340;2022-07-29T18:10:37;1027.7;;;21.9;45.5
57374;BME280;43964;53.890;25.340;2022-07-29T18:15:39;1027.8;;;21.8;46.1
57374;BME280;43964;53.890;25.340;2022-07-29T18:20:37;1027.9;;;21.7;46.4
57374;BME280;43964;53.890;25.340;2022-07-29T18:25:37;1027.9;;;21.8;46.9
57374;BME280;43964;53.890;25.340;2022-07-29T18:30:37;1027.9;;;21.8;46.8
57374;BME280;43964;53.890;25.340;2022-07-29T18:35:37;1028;;;21.5;46.6
57374;BME280;43964;53.890;25.340;2022-07-29T18:40:37;1028;;;21;47.3
57374;BME280;43964;53.890;25.340;2022-07-29T18:45:37;1028.1;;;20.9;47.7
57374;BME280;43964;53.890;25.340;2022-07-29T18:50:37;1028.1;;;20.9;47.7
57374;BME280;43964;53.890;25.340;2022-07-29T18:55:37;1028.2;;;20.4;47.1
57374;BME280;43964;53.890;25.340;2022-07-29T19:00:37;1028.3;;;20.3;48.2
57374;BME280;43964;53.890;25.340;2022-07-29T19:05:37;1028.3;;;20.2;47.6
57374;BME280;43964;53.890;25.340;2022-07-29T19:10:37;1028.3;;;20.1;48.5
57374;BME280;43964;53.890;25.340;2022-07-29T19:15:37;1028.3;;;20;49.3
57374;BME280;43964;53.890;25.340;2022-07-29T19:20:38;1028.3;;;20;50
57374;BME280;43964;53.890;25.340;2022-07-29T19:25:37;1028.3;;;19.7;49.2
57374;BME280;43964;53.890;25.340;2022-07-29T19:30:37;1028.3;;;19.5;49.1
57374;BME280;43964;53.890;25.340;2022-07-29T19:35:37;1028.3;;;19.3;49.5
57374;BME280;43964;53.890;25.340;2022-07-29T19:40:37;1028.4;;;19.2;50
57374;BME280;43964;53.890;25.340;2022-07-29T19:45:37;1028.4;;;19.3;50.2
57374;BME280;43964;53.890;25.340;2022-07-29T19:50:37;1028.4;;;19.3;50
57374;BME280;43964;53.890;25.340;2022-07-29T19:55:37;1028.4;;;19.2;50.4
57374;BME280;43964;53.890;25.340;2022-07-29T20:00:37;1028.4;;;19.2;50.4
57374;BME280;43964;53.890;25.340;2022-07-29T20:05:37;1028.4;;;19.1;51.1
57374;BME280;43964;53.890;25.340;2022-07-29T20:10:37;1028.5;;;18.9;50.4
57374;BME280;43964;53.890;25.340;2022-07-29T20:15:37;1028.5;;;18.9;50.2
57374;BME280;43964;53.890;25.340;2022-07-29T20:20:37;1028.5;;;18.7;50.1
57374;BME280;43964;53.890;25.340;2022-07-29T20:25:37;1028.5;;;18.5;50.8
57374;BME280;43964;53.890;25.340;2022-07-29T20:30:37;1028.5;;;18.4;50.8
57374;BME280;43964;53.890;25.340;2022-07-29T20:35:37;1028.5;;;18.3;51.7
57374;BME280;43964;53.890;25.340;2022-07-29T20:40:37;1028.5;;;18.2;51.2
57374;BME280;43964;53.890;25.340;2022-07-29T20:45:37;1028.5;;;18.1;51.1
57374;BME280;43964;53.890;25.340;2022-07-29T20:50:37;1028.5;;;18.1;50.7
57374;BME280;43964;53.890;25.340;2022-07-29T20:55:37;1028.4;;;17.8;51.8
57374;BME280;43964;53.890;25.340;2022-07-29T21:00:37;1028.5;;;17.6;51.7
57374;BME280;43964;53.890;25.340;2022-07-29T21:05:38;1028.6;;;17.6;51.9
57374;BME280;43964;53.890;25.340;2022-07-29T21:10:37;1028.6;;;17.5;52
57374;BME280;43964;53.890;25.340;2022-07-29T21:15:37;1028.7;;;17.4;51.8
57374;BME280;43964;53.890;25.340;2022-07-29T21:20:37;1028.8;;;17.2;52.1
57374;BME280;43964;53.890;25.340;2022-07-29T21:25:37;1028.8;;;17.1;52.5
57374;BME280;43964;53.890;25.340;2022-07-29T21:30:37;1028.8;;;17.1;52.5
57374;BME280;43964;53.890;25.340;2022-07-29T21:35:37;1028.8;;;16.9;53.4
57374;BME280;43964;53.890;25.340;2022-07-29T21:40:37;1028.8;;;16.9;53.6
57374;BME280;43964;53.890;25.340;2022-07-29T21:45:37;1028.8;;;16.8;53.6
57374;BME280;43964;53.890;25.340;2022-07-29T21:50:37;1028.7;;;16.8;52.7
57374;BME280;43964;53.890;25.340;2022-07-29T21:55:38;1028.7;;;16.6;54.2
57374;BME280;43964;53.890;25.340;2022-07-29T22:00:37;1028.7;;;16.6;54.2
57374;BME280;43964;53.890;25.340;2022-07-29T22:05:37;1028.7;;;16.5;54.1
57374;BME280;43964;53.890;25.340;2022-07-29T22:10:37;1028.7;;;16.5;54
57374;BME280;43964;53.890;25.340;2022-07-29T22:15:37;1028.7;;;16.4;54.1
57374;BME280;43964;53.890;25.340;2022-07-29T22:20:37;1028.6;;;16.3;54.6
57374;BME280;43964;53.890;25.340;2022-07-29T22:25:37;1028.6;;;16.3;54.4
57374;BME280;43964;53.890;25.340;2022-07-29T22:30:37;1028.5;;;16.2;54.6
57374;BME280;43964;53.890;25.340;2022-07-29T22:35:37;1028.5;;;16.2;54.5
57374;BME280;43964;53.890;25.340;2022-07-29T22:40:37;1028.5;;;16.2;54.1
57374;BME280;43964;53.890;25.340;2022-07-29T22:45:37;1028.5;;;16.1;54.8
57374;BME280;43964;53.890;25.340;2022-07-29T22:50:37;1028.5;;;16.1;54.8
57374;BME280;43964;53.890;25.340;2022-07-29T22:55:37;1028.5;;;16;55.1
57374;BME280;43964;53.890;25.340;2022-07-29T23:00:37;1028.5;;;16;55.1
57374;BME280;43964;53.890;25.340;2022-07-29T23:05:37;1028.4;;;15.9;55.1
57374;BME280;43964;53.890;25.340;2022-07-29T23:10:37;1028.4;;;15.9;55
57374;BME280;43964;53.890;25.340;2022-07-29T23:15:37;1028.4;;;15.9;55
57374;BME280;43964;53.890;25.340;2022-07-29T23:20:37;1028.4;;;15.8;55.7
57374;BME280;43964;53.890;25.340;2022-07-29T23:25:37;1028.4;;;15.8;55.9
57374;BME280;43964;53.890;25.340;2022-07-29T23:30:37;1028.4;;;15.8;55.7
57374;BME280;43964;53.890;25.340;2022-07-29T23:35:37;1028.4;;;15.8;55.4
57374;BME280;43964;53.890;25.340;2022-07-29T23:40:37;1028.4;;;15.7;55.3
57374;BME280;43964;53.890;25.340;2022-07-29T23:45:38;1028.5;;;15.6;56.6
57374;BME280;43964;53.890;25.340;2022-07-29T23:50:37;1028.5;;;15.7;56.2
57374;BME280;43964;53.890;25.340;2022-07-29T23:55:37;1028.5;;;15.6;56
